Time;durP1;ratioP1;P1;durP2;ratioP2;P2;SDS_P1;SDS_P2;PMS_P1;PMS_P2;Temp;Humidity;BMP_temperature;BMP_pressure;BME280_temperature;BME280_humidity;BME280_pressure;Samples;Min_cycle;Max_cycle;Signal;HPM_P1;HPM_P2
2023/01/10 00:03:10;;;;;;;5.40;3.60;;;;;;;8.33;nan;100621.59;6200493;28;20233;-72
2023/01/10 00:06:31;;;;;;;5.70;4.00;;;;;;;8.31;nan;100634.31;6197054;28;20839;-72
2023/01/10 00:09:53;;;;;;;4.73;3.80;;;;;;;8.38;nan;100640.88;6220055;28;20533;-72
2023/01/10 00:13:23;;;;;;;5.57;4.13;;;;;;;8.22;nan;100645.78;6197604;28;20245;-72
2023/01/10 00:16:44;;;;;;;6.07;4.63;;;;;;;8.07;nan;100647.88;6195946;28;20241;-71
2023/01/10 00:20:06;;;;;;;12.80;3.97;;;;;;;8.13;nan;100651.91;6202506;28;20230;-70
2023/01/10 00:23:27;;;;;;;5.37;3.83;;;;;;;8.23;nan;100649.31;6201458;28;20237;-72
2023/01/10 00:26:51;;;;;;;3.77;3.33;;;;;;;8.22;nan;100653.00;6195860;28;20237;-72
2023/01/10 00:30:13;;;;;;;11.80;5.20;;;;;;;8.03;nan;100669.75;6200110;28;20225;-71
2023/01/10 00:33:35;;;;;;;4.90;3.07;;;;;;;8.05;nan;100667.81;6204115;28;20668;-71
2023/01/10 00:36:56;;;;;;;9.57;6.43;;;;;;;7.99;nan;100669.13;6191237;28;20241;-71
2023/01/10 00:40:17;;;;;;;10.37;5.20;;;;;;;8.18;nan;100678.41;6210939;28;20227;-71
2023/01/10 00:43:57;;;;;;;4.10;3.23;;;;;;;8.17;nan;100680.22;6186635;28;21920;-72
2023/01/10 00:47:17;;;;;;;5.17;3.67;;;;;;;8.18;nan;100683.75;6176291;28;20757;-71
2023/01/10 00:50:38;;;;;;;10.70;5.13;;;;;;;8.32;nan;100687.06;6193557;28;20531;-71
2023/01/10 00:53:59;;;;;;;9.10;3.77;;;;;;;8.24;nan;100707.41;6183215;28;20237;-71
2023/01/10 00:57:21;;;;;;;4.77;3.67;;;;;;;8.26;nan;100724.28;6210985;28;20233;-72
2023/01/10 01:00:45;;;;;;;11.80;4.03;;;;;;;8.00;nan;100729.91;6209306;28;20233;-72
2023/01/10 01:04:06;;;;;;;16.10;3.00;;;;;;;8.05;nan;100716.13;6209839;28;20279;-72
2023/01/10 01:07:27;;;;;;;6.60;3.37;;;;;;;7.99;nan;100728.19;6218641;28;20232;-72
2023/01/10 01:10:48;;;;;;;7.73;3.67;;;;;;;8.15;nan;100740.38;6221386;28;20552;-71
2023/01/10 01:14:09;;;;;;;4.90;3.27;;;;;;;8.08;nan;100746.25;6210157;28;20303;-71
2023/01/10 01:17:31;;;;;;;10.60;3.20;;;;;;;8.15;nan;100757.34;6222149;28;20673;-70
2023/01/10 01:20:55;;;;;;;6.13;2.87;;;;;;;8.36;nan;100769.06;6222170;28;20809;-71
2023/01/10 01:24:16;;;;;;;7.40;4.17;;;;;;;8.08;nan;100780.28;6219976;28;20316;-71
2023/01/10 01:27:37;;;;;;;8.17;3.27;;;;;;;7.82;nan;100781.53;6224823;28;20237;-72
2023/01/10 01:30:57;;;;;;;6.73;4.20;;;;;;;7.90;nan;100785.31;6219753;28;20243;-71
2023/01/10 01:34:20;;;;;;;4.13;3.73;;;;;;;7.84;nan;100787.63;6214573;28;20636;-71
2023/01/10 01:37:41;;;;;;;13.50;6.63;;;;;;;7.93;nan;100806.50;6218042;28;20236;-71
2023/01/10 01:41:02;;;;;;;4.30;3.40;;;;;;;7.69;nan;100815.66;6218687;28;20318;-71
2023/01/10 01:44:24;;;;;;;5.43;3.17;;;;;;;7.76;nan;100828.44;6195166;28;20237;-71
2023/01/10 01:47:48;;;;;;;9.90;3.90;;;;;;;7.58;nan;100837.94;6193519;28;20237;-72
2023/01/10 01:51:17;;;;;;;3.07;2.63;;;;;;;7.69;nan;100845.16;6191197;28;20540;-72
2023/01/10 01:54:38;;;;;;;6.23;3.40;;;;;;;7.80;nan;100840.66;6193605;28;20240;-72
2023/01/10 01:58:05;;;;;;;4.13;3.47;;;;;;;7.45;nan;100845.19;6194768;28;20663;-71
2023/01/10 02:01:30;;;;;;;4.63;4.03;;;;;;;7.66;nan;100853.44;6194787;28;20234;-72
2023/01/10 02:04:54;;;;;;;6.93;3.70;;;;;;;7.59;nan;100857.56;6216468;28;20228;-71
2023/01/10 02:08:16;;;;;;;5.60;5.10;;;;;;;7.80;nan;100870.16;6222547;28;20712;-71
2023/01/10 02:11:37;;;;;;;4.93;4.43;;;;;;;7.69;nan;100870.16;6214677;28;20225;-72
2023/01/10 02:14:59;;;;;;;4.97;3.43;;;;;;;7.67;nan;100873.94;6199839;28;20237;-71
2023/01/10 02:18:22;;;;;;;10.93;4.00;;;;;;;7.69;nan;100878.22;6220889;28;20536;-71
2023/01/10 02:22:12;;;;;;;4.10;3.80;;;;;;;7.86;nan;100885.78;6216447;28;20240;-71
2023/01/10 02:26:36;;;;;;;3.30;2.93;;;;;;;7.63;nan;100897.47;6220388;28;20228;-72
2023/01/10 02:30:31;;;;;;;3.60;3.23;;;;;;;7.70;nan;100905.88;6104830;28;20243;-71
2023/01/10 02:33:59;;;;;;;4.70;3.20;;;;;;;7.77;nan;100910.66;6147869;28;20233;-71
2023/01/10 02:37:34;;;;;;;2.93;2.63;;;;;;;7.64;nan;100912.56;6190318;28;20233;-71
2023/01/10 02:41:09;;;;;;;8.40;3.63;;;;;;;7.68;nan;100926.59;6196871;28;20237;-72
2023/01/10 02:44:35;;;;;;;4.30;3.83;;;;;;;7.49;nan;100921.78;6184572;28;20269;-71
2023/01/10 02:47:56;;;;;;;10.47;5.07;;;;;;;7.66;nan;100917.81;6197537;28;20233;-73
2023/01/10 02:51:20;;;;;;;4.63;3.13;;;;;;;7.52;nan;100926.06;6207369;28;20229;-72
2023/01/10 02:54:42;;;;;;;5.47;3.37;;;;;;;7.75;nan;100933.22;6213895;28;20328;-72
2023/01/10 02:58:15;;;;;;;3.23;2.13;;;;;;;7.72;nan;100941.50;6196412;28;20312;-72
2023/01/10 03:01:46;;;;;;;7.50;2.97;;;;;;;7.57;nan;100942.69;6195206;28;20233;-71
2023/01/10 03:05:16;;;;;;;6.77;2.53;;;;;;;7.55;nan;100937.41;6196143;28;20239;-72
2023/01/10 03:08:47;;;;;;;7.07;3.03;;;;;;;7.60;nan;100950.47;6200074;28;20222;-71
2023/01/10 03:12:12;;;;;;;11.87;5.27;;;;;;;7.53;nan;100957.28;6206979;28;20229;-72
2023/01/10 03:15:37;;;;;;;5.50;2.73;;;;;;;7.55;nan;100963.41;6194946;28;21305;-72
2023/01/10 03:19:00;;;;;;;6.63;2.93;;;;;;;7.56;nan;100959.72;6191359;28;20671;-71
2023/01/10 03:22:22;;;;;;;8.13;2.83;;;;;;;7.79;nan;100967.75;6188044;28;20241;-72
2023/01/10 03:25:47;;;;;;;3.47;2.97;;;;;;;7.87;nan;100969.84;6191504;28;20229;-72
2023/01/10 03:29:11;;;;;;;6.13;2.77;;;;;;;7.70;nan;100963.09;6193245;28;20237;-72
2023/01/10 03:32:32;;;;;;;2.63;2.37;;;;;;;7.75;nan;100970.78;6181575;28;20327;-72
2023/01/10 03:36:04;;;;;;;9.37;2.73;;;;;;;7.45;nan;100971.25;6175179;28;20299;-72
2023/01/10 03:39:34;;;;;;;6.93;4.13;;;;;;;7.39;nan;100979.75;6185477;28;20229;-72
2023/01/10 03:46:48;;;;;;;3.00;2.03;;;;;;;7.45;nan;100992.72;6191355;28;20233;-71
2023/01/10 03:50:13;;;;;;;5.53;2.33;;;;;;;7.33;nan;101000.81;6178165;28;20257;-71
2023/01/10 03:53:37;;;;;;;4.27;2.67;;;;;;;7.44;nan;101017.84;6202721;28;20350;-71
2023/01/10 03:56:57;;;;;;;6.53;2.57;;;;;;;7.47;nan;101019.44;6216510;28;20836;-72
2023/01/10 04:00:20;;;;;;;3.37;3.07;;;;;;;7.40;nan;101039.63;6201906;28;20623;-70
2023/01/10 04:03:41;;;;;;;2.87;2.37;;;;;;;7.31;nan;101045.63;6209620;28;20642;-71
2023/01/10 04:07:02;;;;;;;9.50;2.43;;;;;;;7.22;nan;101042.66;6185603;28;20237;-72
2023/01/10 04:10:25;;;;;;;3.43;2.43;;;;;;;7.13;nan;101058.56;6183883;28;20241;-71
2023/01/10 04:13:47;;;;;;;6.60;2.90;;;;;;;7.31;nan;101054.53;6185328;28;20252;-72
2023/01/10 04:17:09;;;;;;;4.53;1.77;;;;;;;7.05;nan;101055.59;6184563;28;20232;-71
2023/01/10 04:20:30;;;;;;;3.03;2.23;;;;;;;7.27;nan;101063.78;6172678;28;20233;-72
2023/01/10 04:23:52;;;;;;;3.50;2.03;;;;;;;7.03;nan;101073.59;6186346;28;20232;-72
2023/01/10 04:27:13;;;;;;;4.03;3.53;;;;;;;7.01;nan;101075.50;6186802;28;20237;-72
2023/01/10 04:30:33;;;;;;;4.43;2.43;;;;;;;7.16;nan;101088.69;6191333;28;20626;-71
2023/01/10 04:33:56;;;;;;;3.97;3.33;;;;;;;7.21;nan;101086.53;6190038;28;20301;-71
2023/01/10 04:37:17;;;;;;;5.17;1.70;;;;;;;7.04;nan;101102.09;6183557;28;20233;-71
2023/01/10 04:40:37;;;;;;;8.43;2.30;;;;;;;7.18;nan;101102.81;6184677;28;20232;-72
2023/01/10 04:43:58;;;;;;;9.07;2.83;;;;;;;7.25;nan;101117.53;6184877;28;20261;-71
2023/01/10 04:47:19;;;;;;;3.90;2.20;;;;;;;7.25;nan;101116.66;6188417;28;20233;-73
2023/01/10 04:50:41;;;;;;;7.43;2.13;;;;;;;7.09;nan;101122.22;6190408;28;20225;-72
2023/01/10 04:54:02;;;;;;;3.47;2.30;;;;;;;7.11;nan;101141.75;6176737;28;20233;-70
2023/01/10 04:57:23;;;;;;;2.77;1.90;;;;;;;7.28;nan;101134.34;6175201;28;22822;-72
2023/01/10 05:00:44;;;;;;;7.07;4.07;;;;;;;7.18;nan;101136.81;6192338;28;20819;-72
2023/01/10 05:04:05;;;;;;;5.10;3.67;;;;;;;7.13;nan;101144.34;6198116;28;20240;-71
2023/01/10 05:07:28;;;;;;;8.00;2.37;;;;;;;7.12;nan;101145.28;6180314;28;20248;-72
2023/01/10 05:10:48;;;;;;;2.93;1.73;;;;;;;7.33;nan;101146.47;6185859;28;20232;-72
2023/01/10 05:14:09;;;;;;;12.97;2.10;;;;;;;7.42;nan;101151.19;6185368;28;20245;-72
2023/01/10 05:17:30;;;;;;;3.97;1.80;;;;;;;7.20;nan;101161.69;6177366;28;20595;-72
2023/01/10 05:20:51;;;;;;;20.37;3.10;;;;;;;7.24;nan;101160.50;6184757;28;20253;-70
2023/01/10 05:24:13;;;;;;;6.27;3.90;;;;;;;7.51;nan;101165.75;6183754;28;21401;-72
2023/01/10 05:27:34;;;;;;;3.03;1.83;;;;;;;7.40;nan;101174.56;6187384;28;20262;-72
2023/01/10 05:30:55;;;;;;;3.10;2.47;;;;;;;7.37;nan;101177.47;6202410;28;20581;-71
2023/01/10 05:34:16;;;;;;;3.27;1.97;;;;;;;7.51;nan;101193.41;6196314;28;20248;-71
2023/01/10 05:37:37;;;;;;;5.27;2.77;;;;;;;7.62;nan;101195.34;6203431;28;20328;-72
2023/01/10 05:40:59;;;;;;;2.90;2.07;;;;;;;7.57;nan;101209.06;6203134;28;20283;-72
2023/01/10 05:44:20;;;;;;;7.70;2.30;;;;;;;7.43;nan;101217.25;6198268;28;20265;-72
2023/01/10 05:47:41;;;;;;;4.87;2.13;;;;;;;7.60;nan;101214.25;6187892;28;20240;-70
2023/01/10 05:51:02;;;;;;;3.77;1.37;;;;;;;7.50;nan;101221.22;6181358;28;20808;-73
2023/01/10 05:54:23;;;;;;;3.47;2.07;;;;;;;7.46;nan;101218.88;6183446;28;20233;-72
2023/01/10 05:57:45;;;;;;;6.13;3.30;;;;;;;7.33;nan;101229.59;6201610;28;20222;-71
2023/01/10 06:01:06;;;;;;;11.30;4.53;;;;;;;7.36;nan;101236.56;6200795;28;20228;-71
2023/01/10 06:04:27;;;;;;;10.30;2.50;;;;;;;7.26;nan;101249.75;6202548;28;20249;-71
2023/01/10 06:07:48;;;;;;;10.47;4.37;;;;;;;7.26;nan;101249.75;6218817;28;21355;-72
2023/01/10 06:11:09;;;;;;;7.77;3.20;;;;;;;7.33;nan;101250.19;6219424;28;20228;-71
2023/01/10 06:14:31;;;;;;;13.07;1.93;;;;;;;7.62;nan;101259.72;6220731;28;20244;-71
2023/01/10 06:17:53;;;;;;;3.17;1.80;;;;;;;7.27;nan;101254.16;6222372;28;20259;-72
2023/01/10 06:21:14;;;;;;;6.90;2.77;;;;;;;7.51;nan;101260.47;6201335;28;20381;-72
2023/01/10 06:24:35;;;;;;;2.73;2.03;;;;;;;7.34;nan;101271.56;6198015;28;20241;-72
2023/01/10 06:27:56;;;;;;;12.63;3.20;;;;;;;7.29;nan;101276.34;6193379;28;20229;-72
2023/01/10 06:31:18;;;;;;;6.80;2.70;;;;;;;7.13;nan;101291.78;6212889;28;20240;-71
2023/01/10 06:34:39;;;;;;;10.53;3.57;;;;;;;7.17;nan;101304.00;6211233;28;20252;-72
2023/01/10 06:38:00;;;;;;;2.57;2.00;;;;;;;7.17;nan;101294.16;6189701;28;20248;-72
2023/01/10 06:41:21;;;;;;;4.40;3.07;;;;;;;7.19;nan;101300.28;6193325;28;20430;-72
2023/01/10 06:44:42;;;;;;;3.03;2.37;;;;;;;7.01;nan;101311.34;6186966;28;20237;-70
2023/01/10 06:48:05;;;;;;;5.27;2.60;;;;;;;7.11;nan;101305.28;6184916;28;20237;-71
2023/01/10 06:51:26;;;;;;;5.47;2.10;;;;;;;7.03;nan;101312.13;6181819;28;20648;-71
2023/01/10 06:54:47;;;;;;;4.73;2.50;;;;;;;7.15;nan;101322.88;6183482;28;20344;-70
2023/01/10 06:58:08;;;;;;;3.03;2.13;;;;;;;7.18;nan;101337.88;6190872;28;20359;-70
2023/01/10 07:01:29;;;;;;;2.20;2.00;;;;;;;7.21;nan;101324.28;6174796;28;20237;-71
2023/01/10 07:04:51;;;;;;;5.47;2.80;;;;;;;7.17;nan;101331.69;6181369;28;20245;-72
2023/01/10 07:08:12;;;;;;;11.90;3.40;;;;;;;7.03;nan;101346.97;6176369;28;20237;-72
2023/01/10 07:11:33;;;;;;;12.70;4.67;;;;;;;7.14;nan;101349.78;6173006;28;20735;-71
2023/01/10 07:14:54;;;;;;;5.77;2.77;;;;;;;7.13;nan;101353.44;6195938;28;20253;-72
2023/01/10 07:18:15;;;;;;;4.40;2.40;;;;;;;7.21;nan;101361.81;6181726;28;20237;-73
2023/01/10 07:21:37;;;;;;;4.57;2.30;;;;;;;7.40;nan;101354.25;6177555;28;20233;-71
2023/01/10 07:24:58;;;;;;;2.27;2.07;;;;;;;7.45;nan;101351.28;6180142;28;20574;-73
2023/01/10 07:28:19;;;;;;;8.30;4.53;;;;;;;7.44;nan;101361.13;6193492;28;20240;-72
2023/01/10 07:31:40;;;;;;;7.93;4.17;;;;;;;7.48;nan;101364.47;6186889;28;20564;-71
2023/01/10 07:35:01;;;;;;;3.60;2.63;;;;;;;7.30;nan;101366.59;6181684;28;20229;-73
2023/01/10 07:38:23;;;;;;;2.90;2.50;;;;;;;7.21;nan;101372.56;6207343;28;20252;-72
2023/01/10 07:41:47;;;;;;;3.00;2.80;;;;;;;7.42;nan;101370.25;6209268;28;20255;-71
2023/01/10 07:45:10;;;;;;;6.33;2.50;;;;;;;7.24;nan;101377.69;6210269;28;20304;-72
2023/01/10 07:48:31;;;;;;;3.43;2.50;;;;;;;7.53;nan;101373.91;6218425;28;20626;-72
2023/01/10 07:51:52;;;;;;;6.73;3.90;;;;;;;7.40;nan;101377.53;6218140;28;20857;-71
2023/01/10 07:55:14;;;;;;;5.57;2.80;;;;;;;7.25;nan;101382.09;6216456;28;20224;-73
2023/01/10 07:58:36;;;;;;;7.97;3.87;;;;;;;7.25;nan;101369.56;6191011;28;20816;-73
2023/01/10 08:01:56;;;;;;;7.20;2.80;;;;;;;7.37;nan;101378.59;6196215;28;20307;-72
2023/01/10 08:05:17;;;;;;;9.00;3.00;;;;;;;7.31;nan;101383.50;6194503;28;20242;-72
2023/01/10 08:08:39;;;;;;;6.57;3.33;;;;;;;7.48;nan;101381.41;6184036;28;20851;-73
2023/01/10 08:12:01;;;;;;;7.60;3.67;;;;;;;7.29;nan;101394.34;6198168;28;20233;-73
2023/01/10 08:15:22;;;;;;;9.53;4.67;;;;;;;7.67;nan;101391.75;6193916;28;20248;-73
2023/01/10 08:18:43;;;;;;;4.13;2.47;;;;;;;7.51;nan;101407.19;6197997;28;20237;-72
2023/01/10 08:22:04;;;;;;;7.90;3.13;;;;;;;7.42;nan;101408.66;6199357;28;20471;-72
2023/01/10 08:25:25;;;;;;;2.67;2.47;;;;;;;7.54;nan;101418.56;6189759;28;20241;-72
2023/01/10 08:28:47;;;;;;;11.07;3.80;;;;;;;7.23;nan;101432.28;6197660;28;20327;-73
2023/01/10 08:32:08;;;;;;;7.57;3.00;;;;;;;7.47;nan;101417.22;6192518;28;20279;-71
2023/01/10 08:35:29;;;;;;;10.87;3.00;;;;;;;7.41;nan;101436.44;6189016;28;20256;-73
2023/01/10 08:38:50;;;;;;;4.07;2.03;;;;;;;7.74;nan;101422.59;6220797;28;20236;-71
2023/01/10 08:42:11;;;;;;;13.40;3.33;;;;;;;7.58;nan;101424.56;6220319;28;20606;-72
2023/01/10 08:45:34;;;;;;;9.50;4.60;;;;;;;7.65;nan;101421.38;6217737;28;20236;-72
2023/01/10 08:48:55;;;;;;;8.47;2.93;;;;;;;7.40;nan;101436.53;6213057;28;20412;-72
2023/01/10 08:52:16;;;;;;;8.43;2.80;;;;;;;7.64;nan;101449.16;6213812;28;20665;-73
2023/01/10 08:55:37;;;;;;;2.90;2.43;;;;;;;7.56;nan;101454.19;6212412;28;21406;-72
2023/01/10 08:58:58;;;;;;;4.57;2.93;;;;;;;7.65;nan;101455.41;6194847;28;21478;-72
2023/01/10 09:02:20;;;;;;;6.63;3.47;;;;;;;7.57;nan;101468.47;6181230;28;20237;-73
2023/01/10 09:05:41;;;;;;;4.33;2.80;;;;;;;7.53;nan;101442.81;6203100;28;20272;-73
2023/01/10 09:09:02;;;;;;;3.93;3.23;;;;;;;7.70;nan;101423.72;6187032;28;20619;-72
2023/01/10 09:16:01;;;;;;;8.47;3.60;;;;;;;8.26;nan;101414.47;6182825;28;20238;-73
2023/01/10 09:19:24;;;;;;;14.10;4.93;;;;;;;8.19;nan;101421.22;6186408;28;20237;-72
2023/01/10 09:22:44;;;;;;;8.13;3.83;;;;;;;7.98;nan;101413.69;6182097;28;20260;-72
2023/01/10 09:26:05;;;;;;;4.23;3.80;;;;;;;7.96;nan;101420.13;6191171;28;20257;-73
2023/01/10 09:29:26;;;;;;;5.77;3.73;;;;;;;7.75;nan;101437.69;6190149;28;20246;-73
2023/01/10 09:32:49;;;;;;;5.47;4.37;;;;;;;8.01;nan;101431.38;6219440;28;20244;-72
2023/01/10 09:36:14;;;;;;;10.07;5.10;;;;;;;7.96;nan;101433.56;6195878;28;20233;-72
2023/01/10 09:39:34;;;;;;;9.27;3.63;;;;;;;7.79;nan;101464.22;6194437;28;20233;-71
2023/01/10 09:43:07;;;;;;;5.67;4.70;;;;;;;8.59;nan;101476.56;6195944;28;20264;-72
2023/01/10 09:46:39;;;;;;;8.53;2.43;;;;;;;7.71;nan;101493.41;6217331;28;20240;-72
2023/01/10 09:50:10;;;;;;;6.17;3.87;;;;;;;8.15;nan;101493.06;6200678;28;20253;-73
2023/01/10 09:53:34;;;;;;;9.93;5.60;;;;;;;8.06;nan;101502.63;6198586;28;20237;-73
2023/01/10 09:56:56;;;;;;;3.67;3.23;;;;;;;7.70;nan;101521.19;6199926;28;20233;-74
2023/01/10 10:00:20;;;;;;;4.67;2.50;;;;;;;7.72;nan;101515.72;6198092;28;20230;-73
2023/01/10 10:03:48;;;;;;;7.87;4.57;;;;;;;7.67;nan;101517.88;6212144;28;20253;-74
2023/01/10 10:07:13;;;;;;;7.23;3.37;;;;;;;7.88;nan;101513.75;6210528;28;20315;-72
2023/01/10 10:10:40;;;;;;;5.37;3.13;;;;;;;7.87;nan;101520.06;6221206;28;20229;-72
2023/01/10 10:14:06;;;;;;;3.80;3.10;;;;;;;7.75;nan;101519.06;6220211;28;21015;-73
2023/01/10 10:17:41;;;;;;;6.80;3.67;;;;;;;7.75;nan;101516.41;6225979;28;20684;-73
2023/01/10 10:21:08;;;;;;;4.67;4.17;;;;;;;7.84;nan;101526.50;6223517;28;20507;-72
2023/01/10 10:24:43;;;;;;;4.40;3.70;;;;;;;8.01;nan;101512.78;6211116;28;20538;-72
2023/01/10 10:28:21;;;;;;;3.53;3.23;;;;;;;7.70;nan;101526.56;6207724;28;20234;-72
2023/01/10 10:32:00;;;;;;;14.80;3.90;;;;;;;7.81;nan;101518.66;6197291;28;20229;-73
2023/01/10 10:35:27;;;;;;;13.83;4.77;;;;;;;7.83;nan;101502.44;6214588;28;20225;-72
2023/01/10 10:38:50;;;;;;;7.43;6.50;;;;;;;7.64;nan;101515.38;6213932;28;20619;-73
2023/01/10 10:42:14;;;;;;;7.57;4.57;;;;;;;7.74;nan;101511.97;6213827;28;20225;-73
2023/01/10 10:45:41;;;;;;;6.40;4.50;;;;;;;7.76;nan;101518.09;6198848;28;20892;-72
2023/01/10 10:49:14;;;;;;;4.17;3.40;;;;;;;7.70;nan;101531.94;6195770;28;20244;-71
2023/01/10 10:52:36;;;;;;;14.23;5.53;;;;;;;7.85;nan;101530.91;6211746;28;20233;-73
2023/01/10 10:55:58;;;;;;;9.30;5.27;;;;;;;7.80;nan;101519.63;6202583;28;20237;-72
2023/01/10 10:59:20;;;;;;;11.70;4.40;;;;;;;7.77;nan;101521.66;6195620;28;20225;-73
2023/01/10 11:02:47;;;;;;;5.13;3.70;;;;;;;7.81;nan;101533.91;6190592;28;20277;-73
2023/01/10 11:06:09;;;;;;;5.00;4.03;;;;;;;7.74;nan;101540.66;6192520;28;20666;-74
2023/01/10 11:09:33;;;;;;;7.60;3.97;;;;;;;7.85;nan;101540.78;6215889;28;20224;-73
2023/01/10 11:12:56;;;;;;;6.20;3.87;;;;;;;7.87;nan;101541.53;6201273;28;20262;-72
2023/01/10 11:16:26;;;;;;;6.90;4.53;;;;;;;7.96;nan;101531.06;6194517;28;20536;-73
2023/01/10 11:19:59;;;;;;;7.27;4.77;;;;;;;8.09;nan;101534.63;6213970;28;20235;-73
2023/01/10 11:23:41;;;;;;;6.33;3.83;;;;;;;7.84;nan;101547.13;6196412;28;20335;-72
2023/01/10 11:27:14;;;;;;;7.53;4.63;;;;;;;8.14;nan;101538.81;6197469;28;20233;-72
2023/01/10 11:30:36;;;;;;;9.33;4.17;;;;;;;8.15;nan;101540.53;6192517;28;20229;-72
2023/01/10 11:33:57;;;;;;;7.83;6.87;;;;;;;8.16;nan;101539.56;6216847;28;20248;-72
2023/01/10 11:37:23;;;;;;;8.77;6.00;;;;;;;8.00;nan;101535.25;6209648;28;20240;-72
2023/01/10 11:40:54;;;;;;;10.17;4.10;;;;;;;8.21;nan;101537.44;6210337;28;20244;-72
2023/01/10 11:44:17;;;;;;;4.73;4.30;;;;;;;8.02;nan;101548.56;6215612;28;20228;-72
2023/01/10 11:47:40;;;;;;;9.97;5.07;;;;;;;8.10;nan;101540.84;6200756;28;20252;-72
2023/01/10 11:51:01;;;;;;;7.90;5.13;;;;;;;8.07;nan;101536.53;6219981;28;20236;-72
2023/01/10 11:54:26;;;;;;;13.27;4.00;;;;;;;8.22;nan;101537.31;6217212;28;20236;-71
2023/01/10 11:57:55;;;;;;;11.27;6.53;;;;;;;8.49;nan;101537.31;6217469;28;20229;-72
2023/01/10 12:01:33;;;;;;;6.80;4.07;;;;;;;8.48;nan;101532.88;6216701;28;20231;-70
2023/01/10 12:04:56;;;;;;;5.57;3.47;;;;;;;8.49;nan;101532.75;6189088;28;20225;-68
2023/01/10 12:08:25;;;;;;;3.33;3.03;;;;;;;8.59;nan;101523.13;6195651;28;20232;-68
2023/01/10 12:12:00;;;;;;;5.60;4.73;;;;;;;8.71;nan;101521.38;6215313;28;20236;-69
2023/01/10 12:15:25;;;;;;;6.00;3.93;;;;;;;8.62;nan;101519.34;6216723;28;20245;-72
2023/01/10 12:18:47;;;;;;;13.20;5.63;;;;;;;8.58;nan;101524.06;6206580;28;20256;-72
2023/01/10 12:22:13;;;;;;;6.27;4.43;;;;;;;8.39;nan;101534.38;6205571;28;21736;-74
2023/01/10 12:25:37;;;;;;;9.43;6.20;;;;;;;8.43;nan;101530.50;6198887;28;20390;-71
2023/01/10 12:29:08;;;;;;;6.77;5.20;;;;;;;8.46;nan;101534.81;6214185;28;20241;-73
2023/01/10 12:32:38;;;;;;;8.50;5.27;;;;;;;8.46;nan;101540.19;6208861;28;20248;-71
2023/01/10 12:36:09;;;;;;;6.90;4.37;;;;;;;8.60;nan;101530.19;6192756;28;20224;-72
2023/01/10 12:39:33;;;;;;;15.07;6.20;;;;;;;8.35;nan;101530.19;6192259;28;20260;-72
2023/01/10 12:46:42;;;;;;;9.17;4.60;;;;;;;8.71;nan;101518.69;6188596;28;20233;-71
2023/01/10 12:50:12;;;;;;;4.73;4.23;;;;;;;8.72;nan;101518.56;6190156;28;20233;-71
2023/01/10 12:53:38;;;;;;;6.73;3.90;;;;;;;8.89;nan;101521.91;6184508;28;20237;-71
2023/01/10 12:57:03;;;;;;;6.60;5.97;;;;;;;8.82;nan;101524.19;6183805;28;20233;-70
2023/01/10 13:00:28;;;;;;;6.20;3.80;;;;;;;8.95;nan;101525.00;6190401;28;20225;-71
2023/01/10 13:03:55;;;;;;;8.03;5.70;;;;;;;8.94;nan;101517.06;6208786;28;20233;-72
2023/01/10 13:07:18;;;;;;;11.57;6.50;;;;;;;8.80;nan;101536.88;6105569;28;20236;-72
2023/01/10 13:10:43;;;;;;;8.30;4.70;;;;;;;8.81;nan;101528.69;6183400;28;20232;-71
2023/01/10 13:14:05;;;;;;;6.20;5.20;;;;;;;8.53;nan;101538.81;6208004;28;20384;-73
2023/01/10 13:17:37;;;;;;;8.87;3.33;;;;;;;8.63;nan;101524.63;6216735;28;20224;-72
2023/01/10 13:21:07;;;;;;;5.07;4.53;;;;;;;8.72;nan;101528.47;6215941;28;21157;-72
2023/01/10 13:24:28;;;;;;;6.10;4.80;;;;;;;8.89;nan;101522.75;6220667;28;20564;-71
2023/01/10 13:27:56;;;;;;;5.50;4.70;;;;;;;9.19;nan;101519.69;6222679;28;21442;-71
2023/01/10 13:31:27;;;;;;;7.33;4.30;;;;;;;9.16;nan;101520.75;6214077;28;20232;-71
2023/01/10 13:34:48;;;;;;;6.37;5.37;;;;;;;9.16;nan;101512.69;6219801;28;20618;-72
2023/01/10 13:38:20;;;;;;;5.37;3.43;;;;;;;9.26;nan;101512.91;6195825;28;20241;-72
2023/01/10 13:46:33;;;;;;;7.53;4.17;;;;;;;8.84;nan;101533.00;6195781;28;20250;-70
2023/01/10 13:49:54;;;;;;;5.80;4.63;;;;;;;9.36;nan;101530.94;6195513;28;20416;-72
2023/01/10 13:53:54;;;;;;;3.90;3.60;;;;;;;8.89;nan;101527.28;6189459;28;20332;-73
2023/01/10 13:57:49;;;;;;;8.93;4.23;;;;;;;9.06;nan;101532.28;6198987;28;20233;-71
2023/01/10 14:05:05;;;;;;;11.23;3.93;;;;;;;8.63;nan;101545.25;6191584;28;20237;-71
2023/01/10 14:08:30;;;;;;;14.47;3.70;;;;;;;8.80;nan;101539.56;6185087;28;20320;-72
2023/01/10 14:11:56;;;;;;;5.33;3.40;;;;;;;8.79;nan;101551.25;6186899;28;20249;-71
2023/01/10 14:15:26;;;;;;;6.77;4.93;;;;;;;8.92;nan;101541.38;6199230;28;20229;-72
2023/01/10 14:18:47;;;;;;;6.13;4.47;;;;;;;8.81;nan;101538.56;6198703;28;20236;-71
2023/01/10 14:22:24;;;;;;;4.83;3.67;;;;;;;8.54;nan;101551.25;6201207;28;20233;-71
2023/01/10 14:25:52;;;;;;;7.43;3.93;;;;;;;8.52;nan;101543.31;6201558;28;20233;-72
2023/01/10 14:29:17;;;;;;;6.13;2.80;;;;;;;8.90;nan;101529.00;6191974;28;20320;-72
2023/01/10 14:32:42;;;;;;;5.03;2.43;;;;;;;8.66;nan;101534.28;6218545;28;20260;-72
2023/01/10 14:36:09;;;;;;;5.00;2.77;;;;;;;8.59;nan;101528.50;6223018;28;20236;-69
2023/01/10 14:39:30;;;;;;;6.63;3.13;;;;;;;8.85;nan;101515.88;6205010;28;20261;-71
2023/01/10 14:42:54;;;;;;;6.77;3.53;;;;;;;8.66;nan;101512.78;6220325;28;20323;-72
2023/01/10 14:46:20;;;;;;;17.10;5.23;;;;;;;8.53;nan;101506.56;6222875;28;20264;-72
2023/01/10 14:49:50;;;;;;;12.87;3.83;;;;;;;8.36;nan;101520.31;6205209;28;20237;-71
2023/01/10 14:53:25;;;;;;;3.87;3.47;;;;;;;8.40;nan;101506.56;6197150;28;20270;-71
2023/01/10 14:56:48;;;;;;;5.97;3.03;;;;;;;8.46;nan;101495.38;6201909;28;20230;-71
2023/01/10 15:00:14;;;;;;;4.07;3.43;;;;;;;8.76;nan;101498.56;6200037;28;20237;-71
2023/01/10 15:03:44;;;;;;;3.77;2.57;;;;;;;8.57;nan;101502.69;6199600;28;20229;-72
2023/01/10 15:07:11;;;;;;;3.93;2.33;;;;;;;8.42;nan;101510.00;6206666;28;20268;-72
2023/01/10 15:10:35;;;;;;;5.77;2.90;;;;;;;8.35;nan;101503.31;6199528;28;20229;-72
2023/01/10 15:14:02;;;;;;;4.37;3.43;;;;;;;8.32;nan;101494.63;6206244;28;20233;-71
2023/01/10 15:17:23;;;;;;;5.37;3.40;;;;;;;8.41;nan;101496.66;6194678;28;20344;-71
2023/01/10 15:20:46;;;;;;;7.70;4.37;;;;;;;8.56;nan;101500.97;6218793;28;20507;-71
2023/01/10 15:24:24;;;;;;;4.30;3.30;;;;;;;8.36;nan;101523.00;6215789;28;20278;-72
2023/01/10 15:27:46;;;;;;;4.53;2.70;;;;;;;8.22;nan;101499.72;6216506;28;20241;-73
2023/01/10 15:31:10;;;;;;;15.10;5.30;;;;;;;8.36;nan;101498.81;6189833;28;20249;-72
2023/01/10 15:34:31;;;;;;;4.77;3.33;;;;;;;8.46;nan;101499.88;6175425;28;20240;-72
2023/01/10 15:37:56;;;;;;;5.50;3.63;;;;;;;8.22;nan;101502.41;6184721;28;20233;-72
2023/01/10 15:41:19;;;;;;;15.57;5.27;;;;;;;8.34;nan;101498.06;6211501;28;20319;-72
2023/01/10 15:44:43;;;;;;;5.73;3.77;;;;;;;8.65;nan;101492.25;6212835;28;20233;-73
2023/01/10 15:48:05;;;;;;;9.57;4.17;;;;;;;8.49;nan;101479.03;6208313;28;20240;-72
2023/01/10 15:51:29;;;;;;;6.40;5.67;;;;;;;8.45;nan;101482.91;6202279;28;20242;-72
2023/01/10 15:54:51;;;;;;;5.27;4.27;;;;;;;8.68;nan;101478.56;6203880;28;20499;-71
2023/01/10 15:58:18;;;;;;;10.33;4.87;;;;;;;8.04;nan;101479.53;6177208;28;20233;-72
2023/01/10 16:01:39;;;;;;;9.07;3.70;;;;;;;8.24;nan;101476.31;6178093;28;20516;-71
2023/01/10 16:05:08;;;;;;;6.57;4.07;;;;;;;8.56;nan;101466.03;6186036;28;20237;-72
2023/01/10 16:08:33;;;;;;;5.37;4.53;;;;;;;8.20;nan;101476.66;6190704;28;20324;-72
2023/01/10 16:15:36;;;;;;;4.10;3.40;;;;;;;8.45;nan;101485.59;6184256;28;20700;-72
2023/01/10 16:18:57;;;;;;;5.67;4.80;;;;;;;8.26;nan;101481.63;6183366;28;20229;-71
2023/01/10 16:22:18;;;;;;;18.17;6.03;;;;;;;8.20;nan;101482.03;6192264;28;20278;-72
2023/01/10 16:25:43;;;;;;;12.00;3.87;;;;;;;8.39;nan;101477.09;6189521;28;20229;-71
2023/01/10 16:29:05;;;;;;;8.00;5.03;;;;;;;8.15;nan;101473.41;6193519;28;20237;-72
2023/01/10 16:32:26;;;;;;;8.27;4.17;;;;;;;8.03;nan;101459.84;6192362;28;20237;-72
2023/01/10 16:35:48;;;;;;;19.07;6.87;;;;;;;8.25;nan;101459.28;6193781;28;20233;-72
2023/01/10 16:39:15;;;;;;;11.07;4.10;;;;;;;8.26;nan;101460.97;6194067;28;20233;-71
2023/01/10 16:46:16;;;;;;;24.77;6.07;;;;;;;8.14;nan;101436.75;6204669;28;20236;-71
2023/01/10 16:49:37;;;;;;;8.73;4.77;;;;;;;8.43;nan;101424.88;6191354;28;20233;-72
2023/01/10 16:52:58;;;;;;;11.30;4.67;;;;;;;8.25;nan;101424.34;6197769;28;20241;-71